Time;durP1;ratioP1;P1;durP2;ratioP2;P2;SDS_P1;SDS_P2;PMS_P1;PMS_P2;Temp;Humidity;BMP_temperature;BMP_pressure;BME280_temperature;BME280_humidity;BME280_pressure;Samples;Min_cycle;Max_cycle;Signal;HPM_P1;HPM_P2
2024/01/14 00:00:09;;;;;;;15.20;1.87;;;;;;;;;;5056794;28;20489;-80
2024/01/14 00:02:35;;;;;;;11.73;2.17;;;;;;;;;;5053506;28;20046;-79
2024/01/14 00:05:02;;;;;;;15.85;2.22;;;;;;;;;;5041284;28;20090;-79
2024/01/14 00:07:28;;;;;;;15.77;1.80;;;;;;;;;;5044016;28;20050;-79
2024/01/14 00:09:55;;;;;;;20.63;2.60;;;;;;;;;;5043837;28;20056;-79
2024/01/14 00:12:21;;;;;;;13.45;2.08;;;;;;;;;;5043423;28;20050;-79
2024/01/14 00:14:47;;;;;;;19.55;2.30;;;;;;;;;;5051635;28;20057;-79
2024/01/14 00:17:14;;;;;;;25.88;2.22;;;;;;;;;;5051796;28;20077;-80
2024/01/14 00:19:40;;;;;;;21.48;2.35;;;;;;;;;;5041946;28;20045;-80
2024/01/14 00:22:06;;;;;;;21.30;2.47;;;;;;;;;;5036266;28;20099;-80
2024/01/14 00:24:32;;;;;;;17.98;2.13;;;;;;;;;;5039568;28;20042;-80
2024/01/14 00:26:58;;;;;;;13.27;1.90;;;;;;;;;;5044728;28;20049;-80
2024/01/14 00:29:24;;;;;;;14.13;2.30;;;;;;;;;;5044462;28;20053;-80
2024/01/14 00:31:50;;;;;;;20.02;2.55;;;;;;;;;;5045980;28;20056;-81
2024/01/14 00:34:16;;;;;;;21.60;3.03;;;;;;;;;;5046519;28;20049;-80
2024/01/14 00:36:42;;;;;;;15.68;2.60;;;;;;;;;;5042632;28;20119;-80
2024/01/14 00:39:08;;;;;;;13.75;2.10;;;;;;;;;;5040063;28;20042;-80
2024/01/14 00:41:35;;;;;;;20.60;2.28;;;;;;;;;;5044907;28;20093;-80
2024/01/14 00:44:02;;;;;;;16.08;2.08;;;;;;;;;;5037128;28;20087;-80
2024/01/14 00:46:28;;;;;;;18.00;2.40;;;;;;;;;;5037302;28;20387;-80
2024/01/14 00:48:54;;;;;;;16.08;2.25;;;;;;;;;;5044100;28;20053;-80
2024/01/14 00:51:20;;;;;;;17.27;2.38;;;;;;;;;;5037876;28;20137;-80
2024/01/14 00:53:46;;;;;;;12.27;1.88;;;;;;;;;;5033704;28;20623;-80
2024/01/14 00:56:12;;;;;;;12.68;1.80;;;;;;;;;;5037514;28;20045;-80
2024/01/14 00:58:39;;;;;;;14.40;1.73;;;;;;;;;;5050870;28;20053;-80
2024/01/14 01:01:05;;;;;;;14.63;2.17;;;;;;;;;;5042442;28;20091;-79
2024/01/14 01:03:31;;;;;;;22.13;2.15;;;;;;;;;;5042158;28;20041;-80
2024/01/14 01:05:57;;;;;;;16.38;2.22;;;;;;;;;;5021218;28;20050;-79
2024/01/14 01:08:23;;;;;;;19.77;2.28;;;;;;;;;;5035071;28;20518;-79
2024/01/14 01:10:50;;;;;;;14.73;1.95;;;;;;;;;;5033638;28;20442;-80
2024/01/14 01:13:16;;;;;;;19.52;1.98;;;;;;;;;;5029559;28;20766;-80
2024/01/14 01:15:43;;;;;;;15.55;1.90;;;;;;;;;;5057742;28;20068;-80
2024/01/14 01:18:11;;;;;;;22.55;2.45;;;;;;;;;;5038142;28;20042;-80
2024/01/14 01:20:37;;;;;;;15.95;1.65;;;;;;;;;;5034962;28;20159;-79
2024/01/14 01:23:03;;;;;;;20.33;2.85;;;;;;;;;;5061584;28;20080;-80
2024/01/14 01:25:30;;;;;;;15.48;1.83;;;;;;;;;;5056640;28;20093;-79
2024/01/14 01:27:56;;;;;;;16.85;2.42;;;;;;;;;;5038674;28;20050;-79
2024/01/14 01:30:22;;;;;;;16.92;1.83;;;;;;;;;;5041593;28;20041;-80
2024/01/14 01:32:49;;;;;;;13.63;1.98;;;;;;;;;;5044320;28;20051;-79
2024/01/14 01:35:15;;;;;;;12.23;1.80;;;;;;;;;;5042894;28;20041;-79
2024/01/14 01:37:42;;;;;;;12.07;1.70;;;;;;;;;;5049842;28;20410;-79
2024/01/14 01:40:11;;;;;;;13.48;1.70;;;;;;;;;;5061189;28;20100;-80
2024/01/14 01:42:38;;;;;;;19.02;2.20;;;;;;;;;;5057404;28;20037;-79
2024/01/14 01:45:04;;;;;;;14.00;1.58;;;;;;;;;;5038688;28;20046;-79
2024/01/14 01:47:31;;;;;;;14.18;1.63;;;;;;;;;;5056063;28;20038;-80
2024/01/14 01:49:57;;;;;;;11.48;1.88;;;;;;;;;;5048911;28;20506;-79
2024/01/14 01:52:24;;;;;;;15.98;2.10;;;;;;;;;;5053053;28;20049;-79
2024/01/14 01:54:50;;;;;;;14.60;1.75;;;;;;;;;;5027981;28;20041;-80
2024/01/14 01:57:17;;;;;;;22.85;2.22;;;;;;;;;;5055331;28;20053;-79
2024/01/14 01:59:45;;;;;;;15.50;1.85;;;;;;;;;;5060225;28;20041;-80
2024/01/14 02:02:11;;;;;;;18.17;2.45;;;;;;;;;;5049873;28;20384;-79
2024/01/14 02:04:38;;;;;;;16.75;2.05;;;;;;;;;;5056667;28;20045;-79
2024/01/14 02:07:04;;;;;;;17.08;1.70;;;;;;;;;;5059970;28;20049;-79
2024/01/14 02:09:31;;;;;;;18.00;1.77;;;;;;;;;;5056414;28;20037;-79
2024/01/14 02:11:59;;;;;;;21.70;1.98;;;;;;;;;;5058048;28;20048;-79
2024/01/14 02:14:25;;;;;;;16.60;1.85;;;;;;;;;;5022798;28;20431;-79
2024/01/14 02:16:53;;;;;;;14.02;1.83;;;;;;;;;;5053078;28;20533;-79
2024/01/14 02:19:19;;;;;;;16.95;1.92;;;;;;;;;;5041887;28;20041;-79
2024/01/14 02:22:03;;;;;;;17.65;1.70;;;;;;;;;;5055250;28;20045;-79
2024/01/14 02:24:34;;;;;;;13.43;1.77;;;;;;;;;;5037014;28;20446;-80
2024/01/14 02:27:00;;;;;;;17.58;2.00;;;;;;;;;;5043106;28;20061;-79
2024/01/14 02:29:28;;;;;;;16.58;2.53;;;;;;;;;;5028116;28;20046;-79
2024/01/14 02:31:54;;;;;;;13.95;1.65;;;;;;;;;;5064704;28;20047;-79
2024/01/14 02:34:21;;;;;;;17.23;2.10;;;;;;;;;;5064437;28;20037;-79
2024/01/14 02:36:47;;;;;;;17.10;1.90;;;;;;;;;;5062292;28;20048;-79
2024/01/14 02:39:16;;;;;;;15.57;1.70;;;;;;;;;;5061483;28;20045;-79
2024/01/14 02:41:42;;;;;;;15.68;1.77;;;;;;;;;;5047379;28;20061;-79
2024/01/14 02:44:08;;;;;;;14.82;2.25;;;;;;;;;;5059099;28;20048;-80
2024/01/14 02:46:35;;;;;;;16.23;1.60;;;;;;;;;;5043998;28;20041;-79
2024/01/14 02:49:01;;;;;;;14.95;1.65;;;;;;;;;;5043643;28;20105;-79
2024/01/14 02:51:27;;;;;;;16.00;1.60;;;;;;;;;;5013457;28;20046;-79
2024/01/14 02:53:54;;;;;;;20.02;2.15;;;;;;;;;;5056130;28;20408;-79
2024/01/14 02:56:20;;;;;;;13.77;1.58;;;;;;;;;;5051116;28;20045;-79
2024/01/14 02:58:46;;;;;;;12.35;1.42;;;;;;;;;;5054952;28;20099;-79
2024/01/14 03:01:12;;;;;;;12.43;1.90;;;;;;;;;;5054493;28;20092;-79
2024/01/14 03:03:38;;;;;;;12.75;1.30;;;;;;;;;;5054725;28;20060;-79
2024/01/14 03:06:04;;;;;;;9.45;1.58;;;;;;;;;;5057669;28;20460;-79
2024/01/14 03:08:30;;;;;;;17.00;1.90;;;;;;;;;;5035924;28;20134;-79
2024/01/14 03:10:57;;;;;;;16.48;1.60;;;;;;;;;;5059394;28;20129;-79
2024/01/14 03:13:23;;;;;;;13.98;1.92;;;;;;;;;;5040084;28;20413;-79
2024/01/14 03:15:49;;;;;;;17.20;2.00;;;;;;;;;;5042349;28;20072;-79
2024/01/14 03:18:18;;;;;;;18.98;1.70;;;;;;;;;;5045886;28;20037;-79
2024/01/14 03:20:44;;;;;;;11.05;1.45;;;;;;;;;;5049512;28;20080;-79
2024/01/14 03:23:10;;;;;;;11.48;1.40;;;;;;;;;;5050501;28;20045;-79
2024/01/14 03:25:36;;;;;;;14.35;1.40;;;;;;;;;;5044309;28;20049;-79
2024/01/14 03:28:02;;;;;;;11.90;1.50;;;;;;;;;;5050853;28;20041;-79
2024/01/14 03:30:28;;;;;;;17.50;2.08;;;;;;;;;;5043219;28;20056;-79
2024/01/14 03:32:54;;;;;;;16.13;2.10;;;;;;;;;;5040812;28;20045;-79
2024/01/14 03:35:20;;;;;;;15.27;2.00;;;;;;;;;;5042838;28;20049;-79
2024/01/14 03:37:46;;;;;;;14.27;2.08;;;;;;;;;;5050639;28;20133;-79
2024/01/14 03:40:12;;;;;;;14.23;1.80;;;;;;;;;;5062153;28;20033;-79
2024/01/14 03:42:38;;;;;;;18.67;1.77;;;;;;;;;;5060851;28;20053;-79
2024/01/14 03:45:05;;;;;;;12.50;1.90;;;;;;;;;;5061607;28;20071;-79
2024/01/14 03:47:31;;;;;;;21.00;2.10;;;;;;;;;;5059451;28;20399;-79
2024/01/14 03:49:57;;;;;;;16.10;2.00;;;;;;;;;;5040812;28;20052;-79
2024/01/14 03:52:23;;;;;;;18.00;2.15;;;;;;;;;;5043454;28;20128;-79
2024/01/14 03:54:50;;;;;;;15.32;1.67;;;;;;;;;;5058602;28;20048;-79
2024/01/14 03:57:16;;;;;;;14.98;1.70;;;;;;;;;;5062785;28;20049;-79
2024/01/14 03:59:43;;;;;;;13.73;1.80;;;;;;;;;;5046839;28;20037;-80
2024/01/14 04:02:09;;;;;;;16.63;2.20;;;;;;;;;;5043072;28;20038;-79
2024/01/14 04:04:35;;;;;;;16.10;2.03;;;;;;;;;;5052326;28;20079;-79
2024/01/14 04:07:01;;;;;;;20.50;2.55;;;;;;;;;;5042740;28;20068;-79
2024/01/14 04:09:27;;;;;;;21.50;1.95;;;;;;;;;;5044314;28;20076;-80
2024/01/14 04:11:53;;;;;;;17.73;2.08;;;;;;;;;;5052460;28;20045;-79
2024/01/14 04:14:19;;;;;;;17.10;2.10;;;;;;;;;;5024294;28;20483;-79
2024/01/14 04:16:45;;;;;;;19.38;2.28;;;;;;;;;;5041860;28;20435;-79
2024/01/14 04:19:11;;;;;;;20.98;2.17;;;;;;;;;;5038433;28;20427;-79
2024/01/14 04:21:37;;;;;;;17.15;2.40;;;;;;;;;;5032537;28;20100;-80
2024/01/14 04:24:04;;;;;;;16.95;2.30;;;;;;;;;;5051273;28;20045;-80
2024/01/14 04:26:30;;;;;;;17.55;1.98;;;;;;;;;;5053836;28;20064;-80
2024/01/14 04:28:56;;;;;;;22.98;2.08;;;;;;;;;;5053747;28;20069;-79
2024/01/14 04:31:22;;;;;;;22.25;2.20;;;;;;;;;;5031277;28;20041;-80
2024/01/14 04:33:48;;;;;;;25.02;2.58;;;;;;;;;;5056713;28;20041;-80
2024/01/14 04:36:15;;;;;;;17.58;2.00;;;;;;;;;;5059251;28;20052;-80
2024/01/14 04:38:41;;;;;;;21.45;2.15;;;;;;;;;;5022767;28;20044;-80
2024/01/14 04:41:07;;;;;;;22.08;1.98;;;;;;;;;;5023467;28;20041;-79
2024/01/14 04:43:33;;;;;;;24.15;2.58;;;;;;;;;;5057040;28;20499;-79
2024/01/14 04:45:59;;;;;;;21.52;2.35;;;;;;;;;;5029801;28;20054;-80
2024/01/14 04:48:25;;;;;;;19.88;2.00;;;;;;;;;;5038792;28;20068;-79
2024/01/14 04:50:52;;;;;;;22.95;2.35;;;;;;;;;;5052604;28;20103;-79
2024/01/14 04:53:18;;;;;;;15.00;2.05;;;;;;;;;;5042407;28;20600;-79
2024/01/14 04:55:45;;;;;;;16.70;2.10;;;;;;;;;;5041038;28;20072;-79
2024/01/14 04:58:11;;;;;;;15.60;2.25;;;;;;;;;;5048477;28;20053;-79
2024/01/14 05:00:37;;;;;;;17.05;1.90;;;;;;;;;;5059244;28;20155;-80
2024/01/14 05:03:04;;;;;;;20.33;1.80;;;;;;;;;;5056409;28;20410;-80
2024/01/14 05:05:30;;;;;;;19.58;1.98;;;;;;;;;;5044006;28;20038;-79
2024/01/14 05:07:56;;;;;;;17.75;2.17;;;;;;;;;;5039265;28;20060;-79
2024/01/14 05:10:22;;;;;;;18.90;2.05;;;;;;;;;;5035686;28;20042;-79
2024/01/14 05:12:48;;;;;;;18.17;2.40;;;;;;;;;;5045662;28;20044;-80
2024/01/14 05:15:14;;;;;;;22.50;2.28;;;;;;;;;;5056478;28;20057;-80
2024/01/14 05:17:40;;;;;;;15.05;2.30;;;;;;;;;;5043886;28;20041;-80
2024/01/14 05:20:09;;;;;;;23.52;2.50;;;;;;;;;;5049314;28;20099;-79
2024/01/14 05:22:35;;;;;;;18.30;2.25;;;;;;;;;;5043242;28;20124;-79
2024/01/14 05:25:01;;;;;;;18.33;1.90;;;;;;;;;;5053102;28;20052;-79
2024/01/14 05:27:27;;;;;;;22.63;2.20;;;;;;;;;;5049134;28;20049;-79
2024/01/14 05:29:53;;;;;;;22.27;2.60;;;;;;;;;;5042651;28;20438;-79
2024/01/14 05:32:19;;;;;;;18.50;2.28;;;;;;;;;;5041088;28;20101;-80
2024/01/14 05:34:45;;;;;;;23.92;2.88;;;;;;;;;;5044282;28;20045;-80
2024/01/14 05:37:12;;;;;;;18.10;2.53;;;;;;;;;;5057073;28;20049;-79
2024/01/14 05:39:38;;;;;;;21.08;2.83;;;;;;;;;;5054407;28;20056;-79
2024/01/14 05:42:05;;;;;;;22.75;3.75;;;;;;;;;;5041049;28;20045;-80
2024/01/14 05:44:31;;;;;;;24.70;3.13;;;;;;;;;;5041900;28;20072;-79
2024/01/14 05:46:57;;;;;;;22.23;2.58;;;;;;;;;;5011162;28;20041;-79
2024/01/14 05:49:23;;;;;;;18.02;2.35;;;;;;;;;;5040129;28;20053;-80
2024/01/14 05:51:50;;;;;;;25.70;2.85;;;;;;;;;;5041595;28;20041;-79
2024/01/14 05:54:16;;;;;;;18.00;2.58;;;;;;;;;;5039468;28;20054;-79
2024/01/14 05:56:42;;;;;;;20.23;2.38;;;;;;;;;;5044750;28;20041;-80
2024/01/14 05:59:08;;;;;;;22.45;2.50;;;;;;;;;;5030735;28;20060;-80
2024/01/14 06:01:34;;;;;;;16.48;2.13;;;;;;;;;;5040311;28;20041;-79
2024/01/14 06:04:00;;;;;;;22.25;2.30;;;;;;;;;;5050467;28;20053;-79
2024/01/14 06:06:26;;;;;;;12.75;1.55;;;;;;;;;;5051161;28;20491;-80
2024/01/14 06:08:52;;;;;;;23.33;2.35;;;;;;;;;;5036131;28;20065;-79
2024/01/14 06:11:19;;;;;;;18.38;2.35;;;;;;;;;;5026026;28;20061;-80
2024/01/14 06:13:45;;;;;;;19.02;2.05;;;;;;;;;;5060020;28;20074;-79
2024/01/14 06:16:11;;;;;;;22.13;2.47;;;;;;;;;;5057434;28;20153;-80
2024/01/14 06:18:37;;;;;;;21.73;2.20;;;;;;;;;;5047021;28;20045;-80
2024/01/14 06:21:04;;;;;;;19.63;2.22;;;;;;;;;;5056654;28;20045;-79
2024/01/14 06:23:30;;;;;;;21.08;2.30;;;;;;;;;;5060775;28;20045;-80
2024/01/14 06:25:56;;;;;;;21.02;1.70;;;;;;;;;;5059214;28;20060;-79
2024/01/14 06:28:23;;;;;;;14.05;1.52;;;;;;;;;;5044607;28;20104;-79
2024/01/14 06:30:49;;;;;;;17.23;2.35;;;;;;;;;;5054135;28;20048;-79
2024/01/14 06:33:15;;;;;;;14.80;2.03;;;;;;;;;;5042494;28;20493;-80
2024/01/14 06:35:41;;;;;;;14.18;1.52;;;;;;;;;;5049083;28;20060;-80
2024/01/14 06:38:08;;;;;;;17.10;1.95;;;;;;;;;;5013714;28;20061;-79
2024/01/14 06:40:34;;;;;;;14.65;1.80;;;;;;;;;;5037138;28;20037;-80
2024/01/14 06:43:00;;;;;;;11.80;1.80;;;;;;;;;;5024685;28;20112;-79
2024/01/14 06:45:26;;;;;;;20.80;2.30;;;;;;;;;;5041135;28;20037;-80
2024/01/14 06:47:52;;;;;;;17.63;1.73;;;;;;;;;;5034039;28;20057;-79
2024/01/14 06:50:18;;;;;;;19.33;2.08;;;;;;;;;;5018186;28;20077;-80
2024/01/14 06:52:45;;;;;;;14.13;1.63;;;;;;;;;;5023291;28;20110;-80
2024/01/14 06:55:12;;;;;;;16.02;1.70;;;;;;;;;;5035979;28;20045;-79
2024/01/14 06:57:39;;;;;;;20.17;2.00;;;;;;;;;;5038129;28;20128;-80
2024/01/14 07:00:05;;;;;;;12.00;1.77;;;;;;;;;;5030608;28;20034;-80
2024/01/14 07:02:31;;;;;;;11.98;1.77;;;;;;;;;;5035627;28;20041;-79
2024/01/14 07:05:00;;;;;;;14.50;1.90;;;;;;;;;;5038836;28;20073;-79
2024/01/14 07:07:27;;;;;;;13.18;1.70;;;;;;;;;;5034360;28;20049;-79
2024/01/14 07:09:53;;;;;;;17.65;2.47;;;;;;;;;;5033954;28;20060;-80
2024/01/14 07:12:19;;;;;;;14.77;2.33;;;;;;;;;;5041484;28;20041;-80
2024/01/14 07:14:45;;;;;;;13.57;1.98;;;;;;;;;;5044284;28;20054;-80
2024/01/14 07:17:12;;;;;;;16.60;2.55;;;;;;;;;;5043428;28;20045;-79
2024/01/14 07:19:38;;;;;;;20.52;2.78;;;;;;;;;;5055977;28;20037;-79
2024/01/14 07:22:06;;;;;;;20.77;2.70;;;;;;;;;;5036727;28;20033;-79
2024/01/14 07:24:32;;;;;;;12.15;2.20;;;;;;;;;;5060324;28;20048;-79
2024/01/14 07:26:58;;;;;;;16.65;2.67;;;;;;;;;;5046318;28;20046;-81
2024/01/14 07:29:24;;;;;;;19.50;2.15;;;;;;;;;;5028253;28;20049;-79
2024/01/14 07:31:50;;;;;;;16.17;1.92;;;;;;;;;;5040454;28;20049;-79
2024/01/14 07:34:17;;;;;;;13.88;2.25;;;;;;;;;;5041758;28;20114;-79
2024/01/14 07:36:43;;;;;;;15.00;2.00;;;;;;;;;;5053142;28;20047;-80
2024/01/14 07:39:09;;;;;;;16.58;1.98;;;;;;;;;;5024558;28;20137;-79
2024/01/14 07:41:35;;;;;;;15.27;2.15;;;;;;;;;;5043402;28;20041;-79
2024/01/14 07:44:01;;;;;;;13.50;1.80;;;;;;;;;;5037860;28;20361;-80
2024/01/14 07:46:27;;;;;;;14.02;2.20;;;;;;;;;;5031494;28;20120;-79
2024/01/14 07:48:53;;;;;;;16.08;1.88;;;;;;;;;;5053536;28;20057;-79
2024/01/14 07:51:19;;;;;;;11.88;2.45;;;;;;;;;;5055943;28;20049;-79
2024/01/14 07:53:45;;;;;;;13.80;2.20;;;;;;;;;;5024161;28;20379;-80
2024/01/14 07:56:11;;;;;;;13.07;2.10;;;;;;;;;;5058761;28;20049;-79
2024/01/14 07:58:37;;;;;;;11.30;1.90;;;;;;;;;;5047880;28;20041;-80
2024/01/14 08:01:05;;;;;;;15.57;2.50;;;;;;;;;;5057420;28;20069;-80
2024/01/14 08:03:31;;;;;;;9.90;1.90;;;;;;;;;;5042220;28;20050;-79
2024/01/14 08:05:57;;;;;;;16.08;2.10;;;;;;;;;;5042242;28;20095;-80
2024/01/14 08:08:23;;;;;;;12.43;2.25;;;;;;;;;;5042168;28;20053;-79
2024/01/14 08:10:51;;;;;;;14.15;2.33;;;;;;;;;;5057256;28;20139;-79
2024/01/14 08:13:17;;;;;;;15.00;2.22;;;;;;;;;;5044152;28;20040;-80
2024/01/14 08:15:43;;;;;;;15.18;2.35;;;;;;;;;;5047423;28;20152;-79
2024/01/14 08:18:10;;;;;;;16.42;2.53;;;;;;;;;;5035213;28;20059;-79
2024/01/14 08:20:36;;;;;;;15.63;2.50;;;;;;;;;;5054450;28;20052;-79
2024/01/14 08:23:02;;;;;;;14.57;2.47;;;;;;;;;;5041438;28;20041;-79
2024/01/14 08:25:28;;;;;;;15.63;1.98;;;;;;;;;;5041878;28;20467;-80
2024/01/14 08:27:55;;;;;;;9.38;1.65;;;;;;;;;;5059612;28;20128;-79
2024/01/14 08:30:21;;;;;;;13.77;2.15;;;;;;;;;;5058967;28;20521;-79
2024/01/14 08:32:47;;;;;;;14.27;2.45;;;;;;;;;;5041682;28;20041;-80
2024/01/14 08:35:13;;;;;;;14.40;1.85;;;;;;;;;;5041546;28;20248;-80
2024/01/14 08:37:43;;;;;;;11.32;2.00;;;;;;;;;;5032945;28;20079;-79
2024/01/14 08:40:09;;;;;;;11.88;2.38;;;;;;;;;;5024413;28;20175;-79
2024/01/14 08:42:35;;;;;;;10.23;1.70;;;;;;;;;;5045263;28;20042;-79
2024/01/14 08:45:01;;;;;;;9.95;1.80;;;;;;;;;;5037050;28;20053;-79
2024/01/14 08:47:27;;;;;;;13.25;1.60;;;;;;;;;;5033781;28;20172;-80
2024/01/14 08:49:53;;;;;;;12.27;1.80;;;;;;;;;;5035931;28;20125;-80
2024/01/14 08:52:19;;;;;;;10.50;1.45;;;;;;;;;;5042486;28;20041;-79
2024/01/14 08:54:45;;;;;;;15.68;2.20;;;;;;;;;;5062520;28;20056;-80
2024/01/14 08:57:12;;;;;;;14.85;1.73;;;;;;;;;;5049080;28;20045;-80
2024/01/14 08:59:38;;;;;;;9.93;1.75;;;;;;;;;;5041397;28;20048;-80
2024/01/14 09:02:04;;;;;;;11.15;1.65;;;;;;;;;;5041630;28;20053;-81
2024/01/14 09:04:30;;;;;;;7.53;1.65;;;;;;;;;;5030715;28;20053;-80
2024/01/14 09:06:56;;;;;;;10.55;1.60;;;;;;;;;;5033612;28;20125;-80
2024/01/14 09:09:23;;;;;;;10.00;2.08;;;;;;;;;;5040835;28;20060;-80
2024/01/14 09:11:49;;;;;;;11.20;1.40;;;;;;;;;;5033565;28;20041;-80
2024/01/14 09:14:15;;;;;;;11.73;1.77;;;;;;;;;;5040488;28;20053;-80
2024/01/14 09:16:41;;;;;;;13.65;1.70;;;;;;;;;;5041098;28;20077;-81
2024/01/14 09:19:07;;;;;;;6.35;1.38;;;;;;;;;;5023692;28;20053;-79
2024/01/14 09:21:33;;;;;;;9.85;1.40;;;;;;;;;;5040726;28;20045;-80
2024/01/14 09:23:59;;;;;;;11.63;1.58;;;;;;;;;;5020709;28;20054;-81
2024/01/14 09:26:25;;;;;;;10.57;1.50;;;;;;;;;;5039284;28;20510;-80
2024/01/14 09:28:51;;;;;;;9.20;1.58;;;;;;;;;;5042410;28;20057;-80
2024/01/14 09:31:18;;;;;;;12.27;1.90;;;;;;;;;;5030412;28;20468;-80
2024/01/14 09:33:44;;;;;;;10.57;1.48;;;;;;;;;;5041245;28;20061;-80
2024/01/14 09:36:11;;;;;;;10.55;1.45;;;;;;;;;;5041195;28;20068;-81
2024/01/14 09:38:38;;;;;;;9.88;1.70;;;;;;;;;;5040999;28;20049;-80
2024/01/14 09:41:28;;;;;;;11.20;1.50;;;;;;;;;;5040852;28;20124;-80
2024/01/14 09:43:54;;;;;;;11.13;1.30;;;;;;;;;;5040774;28;20395;-80
2024/01/14 09:46:20;;;;;;;9.30;1.60;;;;;;;;;;5040516;28;20061;-80
2024/01/14 09:48:47;;;;;;;9.50;1.33;;;;;;;;;;5042098;28;20048;-81
2024/01/14 09:51:16;;;;;;;9.35;1.83;;;;;;;;;;5044850;28;20041;-81
2024/01/14 09:53:43;;;;;;;9.30;1.30;;;;;;;;;;5037126;28;20081;-80
2024/01/14 09:56:13;;;;;;;8.60;1.30;;;;;;;;;;5038871;28;20042;-81
2024/01/14 09:58:40;;;;;;;10.73;2.13;;;;;;;;;;5037122;28;20474;-80
2024/01/14 10:01:08;;;;;;;11.70;2.20;;;;;;;;;;5022630;28;20047;-80
2024/01/14 10:03:35;;;;;;;11.60;2.08;;;;;;;;;;5041028;28;20041;-81
2024/01/14 10:06:04;;;;;;;11.93;3.50;;;;;;;;;;5040097;28;20372;-80
2024/01/14 10:08:30;;;;;;;12.55;2.88;;;;;;;;;;5040409;28;20057;-79
2024/01/14 10:10:58;;;;;;;8.98;1.40;;;;;;;;;;5039868;28;20049;-79
2024/01/14 10:13:24;;;;;;;9.70;1.52;;;;;;;;;;5038547;28;20124;-80
2024/01/14 10:15:53;;;;;;;6.72;1.50;;;;;;;;;;5021897;28;20061;-80
2024/01/14 10:18:19;;;;;;;13.65;2.72;;;;;;;;;;5039887;28;20041;-80
2024/01/14 10:20:45;;;;;;;10.27;1.73;;;;;;;;;;5035195;28;20045;-81
2024/01/14 10:23:11;;;;;;;10.27;2.10;;;;;;;;;;5039656;28;20124;-81
2024/01/14 10:25:37;;;;;;;8.65;1.52;;;;;;;;;;5050780;28;20045;-80
2024/01/14 10:28:04;;;;;;;9.55;2.00;;;;;;;;;;5039520;28;20045;-80
2024/01/14 10:30:30;;;;;;;7.90;1.40;;;;;;;;;;5039217;28;20487;-80
2024/01/14 10:32:56;;;;;;;6.95;1.35;;;;;;;;;;5034462;28;20464;-80
2024/01/14 10:35:26;;;;;;;10.10;1.90;;;;;;;;;;5038795;28;20144;-80
2024/01/14 10:37:52;;;;;;;4.88;1.20;;;;;;;;;;5039856;28;20072;-81
2024/01/14 10:40:18;;;;;;;5.47;1.10;;;;;;;;;;5035791;28;20053;-81
2024/01/14 10:42:44;;;;;;;8.40;1.77;;;;;;;;;;5036791;28;20088;-80
2024/01/14 10:45:10;;;;;;;8.10;1.40;;;;;;;;;;5027240;28;20045;-80
2024/01/14 10:47:37;;;;;;;6.10;2.03;;;;;;;;;;5041980;28;20078;-80
2024/01/14 10:50:03;;;;;;;8.40;2.53;;;;;;;;;;5043263;28;20041;-81
2024/01/14 10:52:33;;;;;;;9.65;4.47;;;;;;;;;;5042651;28;20099;-81
2024/01/14 10:55:04;;;;;;;10.02;3.85;;;;;;;;;;5043967;28;20067;-81
2024/01/14 10:57:37;;;;;;;8.65;3.15;;;;;;;;;;5043302;28;20061;-81
2024/01/14 11:00:05;;;;;;;12.65;3.95;;;;;;;;;;5042651;28;20503;-80
2024/01/14 11:02:32;;;;;;;8.80;3.10;;;;;;;;;;5041250;28;20161;-81
2024/01/14 11:04:59;;;;;;;9.85;3.78;;;;;;;;;;5039478;28;20372;-80
2024/01/14 11:07:25;;;;;;;8.57;3.55;;;;;;;;;;5039439;28;20052;-80
2024/01/14 11:09:54;;;;;;;8.00;2.60;;;;;;;;;;5038686;28;20160;-81
2024/01/14 11:12:39;;;;;;;5.97;2.47;;;;;;;;;;5040787;28;20060;-81
2024/01/14 11:15:07;;;;;;;9.52;4.63;;;;;;;;;;5042633;28;20049;-81
2024/01/14 11:17:39;;;;;;;6.57;3.45;;;;;;;;;;5026706;28;20081;-80
2024/01/14 11:20:06;;;;;;;6.13;3.15;;;;;;;;;;5023599;28;20060;-81
2024/01/14 11:22:32;;;;;;;11.20;6.55;;;;;;;;;;5042884;28;20050;-80
2024/01/14 11:24:58;;;;;;;9.82;4.93;;;;;;;;;;5042393;28;20129;-81
2024/01/14 11:27:24;;;;;;;8.07;3.58;;;;;;;;;;5042744;28;20379;-81
2024/01/14 11:29:50;;;;;;;13.07;6.18;;;;;;;;;;5040730;28;20074;-80
2024/01/14 11:32:21;;;;;;;11.80;5.63;;;;;;;;;;5042305;28;20049;-80
2024/01/14 11:34:47;;;;;;;9.88;5.00;;;;;;;;;;5033355;28;20401;-81
2024/01/14 11:37:28;;;;;;;11.20;3.90;;;;;;;;;;5041938;28;20499;-80
2024/01/14 11:39:54;;;;;;;;;;;;;;;;;;5042314;28;20057;-81
2024/01/14 11:42:20;;;;;;;10.05;3.25;;;;;;;;;;5041017;28;19921;-80
2024/01/14 11:44:48;;;;;;;9.80;3.75;;;;;;;;;;5031087;28;20049;-80
2024/01/14 11:47:14;;;;;;;12.70;5.10;;;;;;;;;;5040635;28;20049;-81
2024/01/14 11:49:40;;;;;;;13.07;5.32;;;;;;;;;;5042526;28;20053;-80
2024/01/14 11:52:10;;;;;;;16.50;5.50;;;;;;;;;;5038791;28;20164;-82
2024/01/14 11:54:36;;;;;;;15.75;5.38;;;;;;;;;;5038808;28;20050;-81
2024/01/14 11:57:21;;;;;;;14.68;5.95;;;;;;;;;;5033392;28;20045;-80
2024/01/14 11:59:47;;;;;;;17.98;6.15;;;;;;;;;;5038728;28;20045;-80
2024/01/14 12:02:16;;;;;;;14.80;6.43;;;;;;;;;;5036786;28;20068;-81
2024/01/14 12:04:42;;;;;;;15.35;6.38;;;;;;;;;;5041357;28;20095;-80
2024/01/14 12:07:08;;;;;;;13.95;5.80;;;;;;;;;;5040419;28;20649;-80
2024/01/14 12:09:34;;;;;;;12.20;5.05;;;;;;;;;;5042048;28;20120;-81
2024/01/14 12:12:07;;;;;;;15.30;4.57;;;;;;;;;;5037886;28;20499;-80
2024/01/14 12:14:37;;;;;;;11.80;4.40;;;;;;;;;;5040788;28;20053;-80
2024/01/14 12:17:09;;;;;;;10.57;3.53;;;;;;;;;;5039756;28;20068;-80
2024/01/14 12:19:36;;;;;;;10.05;4.00;;;;;;;;;;5041829;28;20053;-80
2024/01/14 12:22:02;;;;;;;11.50;3.70;;;;;;;;;;5039743;28;20049;-80
2024/01/14 12:24:31;;;;;;;13.40;4.20;;;;;;;;;;5040032;28;20045;-80
2024/01/14 12:27:00;;;;;;;12.40;4.90;;;;;;;;;;5040540;28;20096;-81
2024/01/14 12:29:30;;;;;;;11.10;4.43;;;;;;;;;;5040723;28;20049;-81
2024/01/14 12:31:56;;;;;;;9.75;4.18;;;;;;;;;;5023948;28;20049;-80
2024/01/14 12:34:23;;;;;;;10.82;4.13;;;;;;;;;;5030318;28;20045;-81
2024/01/14 12:36:49;;;;;;;9.48;3.67;;;;;;;;;;5045254;28;20068;-81
2024/01/14 12:39:17;;;;;;;12.57;3.90;;;;;;;;;;5040565;28;20041;-81
2024/01/14 12:41:46;;;;;;;9.02;3.50;;;;;;;;;;5040527;28;20053;-80
2024/01/14 12:44:12;;;;;;;13.07;3.30;;;;;;;;;;5040029;28;20049;-81
2024/01/14 12:46:38;;;;;;;11.85;3.92;;;;;;;;;;5040387;28;20061;-81
2024/01/14 12:49:06;;;;;;;9.98;2.83;;;;;;;;;;5049454;28;20048;-80
2024/01/14 12:51:33;;;;;;;6.95;2.85;;;;;;;;;;5020880;28;20046;-80
2024/01/14 12:53:59;;;;;;;9.93;4.03;;;;;;;;;;5027027;28;20083;-80
2024/01/14 12:56:25;;;;;;;10.25;3.67;;;;;;;;;;5039878;28;20053;-80
2024/01/14 12:58:52;;;;;;;13.60;4.60;;;;;;;;;;5040045;28;20056;-80
2024/01/14 13:01:19;;;;;;;9.02;4.00;;;;;;;;;;5040209;28;20038;-81
2024/01/14 13:03:46;;;;;;;11.65;3.97;;;;;;;;;;5038262;28;20061;-81
2024/01/14 13:06:12;;;;;;;10.45;4.50;;;;;;;;;;5039113;28;20391;-81
2024/01/14 13:08:39;;;;;;;12.35;5.03;;;;;;;;;;5039030;28;20053;-81
2024/01/14 13:11:05;;;;;;;10.85;5.45;;;;;;;;;;5038785;28;20057;-80
2024/01/14 13:13:35;;;;;;;12.70;6.00;;;;;;;;;;5042363;28;20068;-80
2024/01/14 13:16:01;;;;;;;13.95;6.57;;;;;;;;;;5038598;28;20046;-81
2024/01/14 13:18:27;;;;;;;14.38;6.65;;;;;;;;;;5030510;28;20037;-81
2024/01/14 13:20:53;;;;;;;15.05;7.90;;;;;;;;;;5015209;28;20049;-80
2024/01/14 13:23:19;;;;;;;14.70;6.70;;;;;;;;;;5022745;28;20056;-80
2024/01/14 13:25:46;;;;;;;14.13;6.60;;;;;;;;;;5034926;28;20046;-81
2024/01/14 13:28:12;;;;;;;14.27;6.20;;;;;;;;;;5035631;28;20053;-81
2024/01/14 13:30:38;;;;;;;12.75;6.07;;;;;;;;;;5035742;28;20045;-80
2024/01/14 13:33:04;;;;;;;15.80;7.03;;;;;;;;;;5036395;28;20045;-79
2024/01/14 13:35:30;;;;;;;16.10;6.38;;;;;;;;;;5035903;28;20511;-81
2024/01/14 13:37:56;;;;;;;13.68;7.03;;;;;;;;;;5035218;28;20053;-81
2024/01/14 13:40:23;;;;;;;13.13;6.30;;;;;;;;;;5035033;28;20458;-80
2024/01/14 13:42:49;;;;;;;15.85;7.28;;;;;;;;;;5033793;28;20099;-80
2024/01/14 13:45:16;;;;;;;17.13;7.18;;;;;;;;;;5035341;28;20049;-80
2024/01/14 13:47:42;;;;;;;15.77;7.03;;;;;;;;;;5033812;28;20044;-80
2024/01/14 13:50:09;;;;;;;17.52;7.10;;;;;;;;;;5037651;28;20415;-80
2024/01/14 13:52:35;;;;;;;15.32;7.95;;;;;;;;;;5039105;28;20071;-81
2024/01/14 13:55:02;;;;;;;18.17;8.10;;;;;;;;;;5037667;28;20041;-81
2024/01/14 13:57:28;;;;;;;16.73;7.60;;;;;;;;;;5031933;28;20049;-81
2024/01/14 13:59:54;;;;;;;17.30;7.57;;;;;;;;;;5038257;28;20517;-81
2024/01/14 14:02:20;;;;;;;16.50;8.27;;;;;;;;;;5038354;28;20495;-81
2024/01/14 14:04:46;;;;;;;13.82;6.88;;;;;;;;;;5033082;28;20447;-80
2024/01/14 14:07:13;;;;;;;14.82;7.03;;;;;;;;;;5017506;28;20053;-80
2024/01/14 14:09:39;;;;;;;13.57;6.82;;;;;;;;;;5019954;28;20057;-81
2024/01/14 14:12:07;;;;;;;14.25;6.38;;;;;;;;;;5018737;28;20045;-81
2024/01/14 14:14:34;;;;;;;12.60;6.38;;;;;;;;;;5019115;28;20057;-80
2024/01/14 14:17:00;;;;;;;12.93;6.22;;;;;;;;;;5019578;28;20057;-81
2024/01/14 14:19:26;;;;;;;12.15;6.05;;;;;;;;;;5022382;28;20042;-81
2024/01/14 14:21:55;;;;;;;16.13;6.88;;;;;;;;;;5048118;28;20054;-80
2024/01/14 14:24:21;;;;;;;13.73;6.35;;;;;;;;;;5052295;28;20401;-79
2024/01/14 14:26:47;;;;;;;17.08;6.20;;;;;;;;;;5046771;28;20120;-79